sensor_id;sensor_type;location;lat;lon;timestamp;P1;durP1;ratioP1;P2;durP2;ratioP2
25079;SDS011;13071;48.868;9.996;2024-02-26T00:00:41;4.68;;;2.45;;
25079;SDS011;13071;48.868;9.996;2024-02-26T00:03:09;6.70;;;2.40;;
25079;SDS011;13071;48.868;9.996;2024-02-26T00:05:35;3.97;;;2.47;;
25079;SDS011;13071;48.868;9.996;2024-02-26T00:08:04;4.47;;;2.58;;
25079;SDS011;13071;48.868;9.996;2024-02-26T00:10:30;4.65;;;2.40;;
25079;SDS011;13071;48.868;9.996;2024-02-26T00:12:57;4.60;;;2.78;;
25079;SDS011;13071;48.868;9.996;2024-02-26T00:15:23;3.15;;;2.05;;
25079;SDS011;13071;48.868;9.996;2024-02-26T00:17:50;4.50;;;2.67;;
25079;SDS011;13071;48.868;9.996;2024-02-26T00:20:17;3.45;;;2.45;;
25079;SDS011;13071;48.868;9.996;2024-02-26T00:22:44;4.55;;;2.33;;
25079;SDS011;13071;48.868;9.996;2024-02-26T00:25:10;6.72;;;2.33;;
25079;SDS011;13071;48.868;9.996;2024-02-26T00:27:37;3.70;;;2.30;;
25079;SDS011;13071;48.868;9.996;2024-02-26T00:30:05;4.45;;;2.13;;
25079;SDS011;13071;48.868;9.996;2024-02-26T00:32:32;3.90;;;2.13;;
25079;SDS011;13071;48.868;9.996;2024-02-26T00:34:58;5.00;;;2.35;;
25079;SDS011;13071;48.868;9.996;2024-02-26T00:37:26;4.47;;;2.55;;
25079;SDS011;13071;48.868;9.996;2024-02-26T00:39:52;4.18;;;2.20;;
25079;SDS011;13071;48.868;9.996;2024-02-26T00:42:19;6.25;;;2.15;;
25079;SDS011;13071;48.868;9.996;2024-02-26T00:44:45;4.35;;;2.50;;
25079;SDS011;13071;48.868;9.996;2024-02-26T00:47:11;5.53;;;2.15;;
25079;SDS011;13071;48.868;9.996;2024-02-26T00:49:38;4.38;;;2.40;;
25079;SDS011;13071;48.868;9.996;2024-02-26T00:52:05;4.28;;;2.33;;
25079;SDS011;13071;48.868;9.996;2024-02-26T00:54:32;6.55;;;2.60;;
25079;SDS011;13071;48.868;9.996;2024-02-26T00:56:59;3.50;;;1.98;;
25079;SDS011;13071;48.868;9.996;2024-02-26T00:59:25;3.47;;;2.10;;
25079;SDS011;13071;48.868;9.996;2024-02-26T01:01:52;4.38;;;1.83;;
25079;SDS011;13071;48.868;9.996;2024-02-26T01:04:18;3.03;;;1.67;;
25079;SDS011;13071;48.868;9.996;2024-02-26T01:06:44;3.83;;;1.70;;
25079;SDS011;13071;48.868;9.996;2024-02-26T01:09:11;3.35;;;1.90;;
25079;SDS011;13071;48.868;9.996;2024-02-26T01:11:39;2.83;;;1.67;;
25079;SDS011;13071;48.868;9.996;2024-02-26T01:14:05;1.45;;;1.20;;
25079;SDS011;13071;48.868;9.996;2024-02-26T01:16:31;1.95;;;1.25;;
25079;SDS011;13071;48.868;9.996;2024-02-26T01:18:58;5.22;;;1.70;;
25079;SDS011;13071;48.868;9.996;2024-02-26T01:21:24;2.15;;;1.50;;
25079;SDS011;13071;48.868;9.996;2024-02-26T01:23:52;1.15;;;1.08;;
25079;SDS011;13071;48.868;9.996;2024-02-26T01:26:18;5.22;;;1.35;;
25079;SDS011;13071;48.868;9.996;2024-02-26T01:28:46;3.22;;;1.58;;
25079;SDS011;13071;48.868;9.996;2024-02-26T01:31:12;1.42;;;1.33;;
25079;SDS011;13071;48.868;9.996;2024-02-26T01:33:38;2.65;;;1.40;;
25079;SDS011;13071;48.868;9.996;2024-02-26T01:36:05;1.75;;;1.35;;
25079;SDS011;13071;48.868;9.996;2024-02-26T01:38:31;2.58;;;1.85;;
25079;SDS011;13071;48.868;9.996;2024-02-26T01:40:58;3.97;;;1.95;;
25079;SDS011;13071;48.868;9.996;2024-02-26T01:43:24;5.05;;;2.10;;
25079;SDS011;13071;48.868;9.996;2024-02-26T01:45:52;2.20;;;1.73;;
25079;SDS011;13071;48.868;9.996;2024-02-26T01:48:18;5.00;;;1.95;;
25079;SDS011;13071;48.868;9.996;2024-02-26T01:50:45;4.88;;;2.25;;
25079;SDS011;13071;48.868;9.996;2024-02-26T01:53:11;5.45;;;2.00;;
25079;SDS011;13071;48.868;9.996;2024-02-26T01:55:38;3.47;;;1.85;;
25079;SDS011;13071;48.868;9.996;2024-02-26T01:58:05;2.05;;;1.73;;
25079;SDS011;13071;48.868;9.996;2024-02-26T02:00:31;5.07;;;2.17;;
25079;SDS011;13071;48.868;9.996;2024-02-26T02:02:59;3.95;;;2.00;;
25079;SDS011;13071;48.868;9.996;2024-02-26T02:05:26;6.18;;;2.28;;
25079;SDS011;13071;48.868;9.996;2024-02-26T02:07:53;2.03;;;1.75;;
25079;SDS011;13071;48.868;9.996;2024-02-26T02:10:19;3.85;;;2.15;;
25079;SDS011;13071;48.868;9.996;2024-02-26T02:12:47;3.15;;;1.85;;
25079;SDS011;13071;48.868;9.996;2024-02-26T02:15:14;3.88;;;2.13;;
25079;SDS011;13071;48.868;9.996;2024-02-26T02:17:40;2.00;;;1.75;;
25079;SDS011;13071;48.868;9.996;2024-02-26T02:20:09;2.72;;;1.88;;
25079;SDS011;13071;48.868;9.996;2024-02-26T02:22:37;3.60;;;2.20;;
25079;SDS011;13071;48.868;9.996;2024-02-26T02:25:04;3.58;;;2.10;;
25079;SDS011;13071;48.868;9.996;2024-02-26T02:27:30;4.63;;;2.17;;
25079;SDS011;13071;48.868;9.996;2024-02-26T02:29:56;2.80;;;1.85;;
25079;SDS011;13071;48.868;9.996;2024-02-26T02:32:23;4.03;;;2.00;;
25079;SDS011;13071;48.868;9.996;2024-02-26T02:34:50;2.13;;;1.85;;
25079;SDS011;13071;48.868;9.996;2024-02-26T02:37:16;2.45;;;1.80;;
25079;SDS011;13071;48.868;9.996;2024-02-26T02:39:44;6.40;;;1.80;;
25079;SDS011;13071;48.868;9.996;2024-02-26T02:42:11;4.95;;;2.13;;
25079;SDS011;13071;48.868;9.996;2024-02-26T02:44:37;2.20;;;1.60;;
25079;SDS011;13071;48.868;9.996;2024-02-26T02:47:04;3.60;;;1.77;;
25079;SDS011;13071;48.868;9.996;2024-02-26T02:49:30;3.25;;;1.58;;
25079;SDS011;13071;48.868;9.996;2024-02-26T02:51:56;4.35;;;1.85;;
25079;SDS011;13071;48.868;9.996;2024-02-26T02:54:23;2.58;;;1.70;;
25079;SDS011;13071;48.868;9.996;2024-02-26T02:56:51;1.65;;;1.52;;
25079;SDS011;13071;48.868;9.996;2024-02-26T02:59:17;3.35;;;2.00;;
25079;SDS011;13071;48.868;9.996;2024-02-26T03:01:44;2.58;;;1.67;;
25079;SDS011;13071;48.868;9.996;2024-02-26T03:04:10;3.50;;;1.92;;
25079;SDS011;13071;48.868;9.996;2024-02-26T03:06:37;5.50;;;2.17;;
25079;SDS011;13071;48.868;9.996;2024-02-26T03:09:03;2.97;;;2.10;;
25079;SDS011;13071;48.868;9.996;2024-02-26T03:11:29;4.32;;;2.20;;
25079;SDS011;13071;48.868;9.996;2024-02-26T03:13:57;4.03;;;2.20;;
25079;SDS011;13071;48.868;9.996;2024-02-26T03:16:24;3.88;;;2.22;;
25079;SDS011;13071;48.868;9.996;2024-02-26T03:18:50;3.72;;;2.00;;
25079;SDS011;13071;48.868;9.996;2024-02-26T03:21:16;3.97;;;2.30;;
25079;SDS011;13071;48.868;9.996;2024-02-26T03:23:43;3.33;;;1.90;;
25079;SDS011;13071;48.868;9.996;2024-02-26T03:26:09;7.55;;;2.22;;
25079;SDS011;13071;48.868;9.996;2024-02-26T03:28:38;3.67;;;2.00;;
25079;SDS011;13071;48.868;9.996;2024-02-26T03:31:06;4.95;;;2.10;;
25079;SDS011;13071;48.868;9.996;2024-02-26T03:33:33;8.23;;;2.45;;
25079;SDS011;13071;48.868;9.996;2024-02-26T03:36:00;3.05;;;1.88;;
25079;SDS011;13071;48.868;9.996;2024-02-26T03:38:28;6.53;;;2.47;;
25079;SDS011;13071;48.868;9.996;2024-02-26T03:40:54;4.65;;;2.60;;
25079;SDS011;13071;48.868;9.996;2024-02-26T03:43:21;3.88;;;1.75;;
25079;SDS011;13071;48.868;9.996;2024-02-26T03:45:47;2.45;;;1.70;;
25079;SDS011;13071;48.868;9.996;2024-02-26T03:48:15;2.53;;;1.70;;
25079;SDS011;13071;48.868;9.996;2024-02-26T03:50:41;5.93;;;1.45;;
25079;SDS011;13071;48.868;9.996;2024-02-26T03:53:08;1.83;;;1.70;;
25079;SDS011;13071;48.868;9.996;2024-02-26T03:55:37;3.03;;;1.70;;
25079;SDS011;13071;48.868;9.996;2024-02-26T03:58:04;3.40;;;1.70;;
25079;SDS011;13071;48.868;9.996;2024-02-26T04:00:30;4.28;;;1.50;;
25079;SDS011;13071;48.868;9.996;2024-02-26T04:02:56;2.40;;;1.38;;
25079;SDS011;13071;48.868;9.996;2024-02-26T04:05:24;2.75;;;1.70;;
25079;SDS011;13071;48.868;9.996;2024-02-26T04:07:51;4.97;;;2.15;;
25079;SDS011;13071;48.868;9.996;2024-02-26T04:10:17;3.15;;;1.80;;
25079;SDS011;13071;48.868;9.996;2024-02-26T04:12:43;3.65;;;1.75;;
25079;SDS011;13071;48.868;9.996;2024-02-26T04:15:10;3.42;;;1.80;;
25079;SDS011;13071;48.868;9.996;2024-02-26T04:17:36;3.67;;;1.60;;
25079;SDS011;13071;48.868;9.996;2024-02-26T04:20:04;5.97;;;1.92;;
25079;SDS011;13071;48.868;9.996;2024-02-26T04:22:33;2.50;;;1.65;;
25079;SDS011;13071;48.868;9.996;2024-02-26T04:24:59;3.22;;;1.60;;
25079;SDS011;13071;48.868;9.996;2024-02-26T04:27:25;2.22;;;1.83;;
25079;SDS011;13071;48.868;9.996;2024-02-26T04:29:52;6.72;;;1.90;;
25079;SDS011;13071;48.868;9.996;2024-02-26T04:32:18;2.22;;;1.73;;
25079;SDS011;13071;48.868;9.996;2024-02-26T04:34:45;4.13;;;2.15;;
25079;SDS011;13071;48.868;9.996;2024-02-26T04:37:12;4.10;;;2.05;;
25079;SDS011;13071;48.868;9.996;2024-02-26T04:39:39;3.83;;;1.80;;
25079;SDS011;13071;48.868;9.996;2024-02-26T04:42:06;4.28;;;2.17;;
25079;SDS011;13071;48.868;9.996;2024-02-26T04:44:32;3.08;;;2.00;;
25079;SDS011;13071;48.868;9.996;2024-02-26T04:46:58;5.28;;;2.08;;
25079;SDS011;13071;48.868;9.996;2024-02-26T04:49:26;2.88;;;2.10;;
25079;SDS011;13071;48.868;9.996;2024-02-26T04:51:53;2.72;;;1.73;;
25079;SDS011;13071;48.868;9.996;2024-02-26T04:54:19;4.68;;;2.42;;
25079;SDS011;13071;48.868;9.996;2024-02-26T04:56:47;3.17;;;1.83;;
25079;SDS011;13071;48.868;9.996;2024-02-26T04:59:14;2.92;;;2.10;;
25079;SDS011;13071;48.868;9.996;2024-02-26T05:01:40;4.55;;;2.20;;
25079;SDS011;13071;48.868;9.996;2024-02-26T05:04:06;4.88;;;2.45;;
25079;SDS011;13071;48.868;9.996;2024-02-26T05:06:33;5.30;;;2.67;;
25079;SDS011;13071;48.868;9.996;2024-02-26T05:08:59;7.72;;;2.40;;
25079;SDS011;13071;48.868;9.996;2024-02-26T05:11:25;7.45;;;3.22;;
25079;SDS011;13071;48.868;9.996;2024-02-26T05:13:53;8.70;;;3.20;;
25079;SDS011;13071;48.868;9.996;2024-02-26T05:16:19;10.57;;;3.15;;
25079;SDS011;13071;48.868;9.996;2024-02-26T05:18:49;3.95;;;2.55;;
25079;SDS011;13071;48.868;9.996;2024-02-26T05:21:16;5.90;;;3.00;;
25079;SDS011;13071;48.868;9.996;2024-02-26T05:23:42;5.85;;;3.08;;
25079;SDS011;13071;48.868;9.996;2024-02-26T05:26:08;5.75;;;3.00;;
25079;SDS011;13071;48.868;9.996;2024-02-26T05:28:35;6.00;;;2.85;;
25079;SDS011;13071;48.868;9.996;2024-02-26T05:31:05;8.68;;;3.50;;
25079;SDS011;13071;48.868;9.996;2024-02-26T05:33:32;5.72;;;2.90;;
25079;SDS011;13071;48.868;9.996;2024-02-26T05:35:58;5.50;;;2.88;;
25079;SDS011;13071;48.868;9.996;2024-02-26T05:38:29;5.13;;;2.80;;
25079;SDS011;13071;48.868;9.996;2024-02-26T05:40:55;4.28;;;2.47;;
25079;SDS011;13071;48.868;9.996;2024-02-26T05:43:22;6.13;;;2.80;;
25079;SDS011;13071;48.868;9.996;2024-02-26T05:45:48;6.47;;;2.72;;
25079;SDS011;13071;48.868;9.996;2024-02-26T05:48:16;6.70;;;2.90;;
25079;SDS011;13071;48.868;9.996;2024-02-26T05:50:44;7.55;;;3.20;;
25079;SDS011;13071;48.868;9.996;2024-02-26T05:53:10;6.13;;;3.25;;
25079;SDS011;13071;48.868;9.996;2024-02-26T05:55:37;8.85;;;3.83;;
25079;SDS011;13071;48.868;9.996;2024-02-26T05:58:03;7.80;;;2.80;;
25079;SDS011;13071;48.868;9.996;2024-02-26T06:00:30;7.40;;;3.20;;
25079;SDS011;13071;48.868;9.996;2024-02-26T06:02:56;8.00;;;3.20;;
25079;SDS011;13071;48.868;9.996;2024-02-26T06:05:24;9.52;;;3.13;;
25079;SDS011;13071;48.868;9.996;2024-02-26T06:07:51;10.18;;;3.08;;
25079;SDS011;13071;48.868;9.996;2024-02-26T06:10:17;4.93;;;2.72;;
25079;SDS011;13071;48.868;9.996;2024-02-26T06:12:46;5.50;;;3.22;;
25079;SDS011;13071;48.868;9.996;2024-02-26T06:15:12;6.50;;;3.35;;
25079;SDS011;13071;48.868;9.996;2024-02-26T06:17:39;4.30;;;2.55;;
25079;SDS011;13071;48.868;9.996;2024-02-26T06:20:06;5.25;;;2.80;;
25079;SDS011;13071;48.868;9.996;2024-02-26T06:22:38;6.10;;;2.55;;
25079;SDS011;13071;48.868;9.996;2024-02-26T06:25:04;7.53;;;3.15;;
25079;SDS011;13071;48.868;9.996;2024-02-26T06:27:31;9.15;;;3.45;;
25079;SDS011;13071;48.868;9.996;2024-02-26T06:29:57;6.10;;;3.47;;
25079;SDS011;13071;48.868;9.996;2024-02-26T06:32:23;5.10;;;2.63;;
25079;SDS011;13071;48.868;9.996;2024-02-26T06:34:51;5.35;;;2.92;;
25079;SDS011;13071;48.868;9.996;2024-02-26T06:37:18;8.13;;;3.33;;
25079;SDS011;13071;48.868;9.996;2024-02-26T06:39:46;5.78;;;2.90;;
25079;SDS011;13071;48.868;9.996;2024-02-26T06:42:12;4.88;;;3.03;;
25079;SDS011;13071;48.868;9.996;2024-02-26T06:44:38;6.22;;;2.95;;
25079;SDS011;13071;48.868;9.996;2024-02-26T06:47:05;10.00;;;3.42;;
25079;SDS011;13071;48.868;9.996;2024-02-26T06:49:31;6.82;;;3.10;;
25079;SDS011;13071;48.868;9.996;2024-02-26T06:51:58;6.40;;;3.17;;
25079;SDS011;13071;48.868;9.996;2024-02-26T06:54:24;8.77;;;3.20;;
25079;SDS011;13071;48.868;9.996;2024-02-26T06:56:52;5.25;;;3.13;;
25079;SDS011;13071;48.868;9.996;2024-02-26T06:59:18;8.80;;;3.28;;
25079;SDS011;13071;48.868;9.996;2024-02-26T07:01:45;9.15;;;3.60;;
25079;SDS011;13071;48.868;9.996;2024-02-26T07:04:11;6.90;;;3.08;;
25079;SDS011;13071;48.868;9.996;2024-02-26T07:06:38;8.90;;;3.95;;
25079;SDS011;13071;48.868;9.996;2024-02-26T07:09:04;10.07;;;3.90;;
25079;SDS011;13071;48.868;9.996;2024-02-26T07:11:30;8.13;;;4.00;;
25079;SDS011;13071;48.868;9.996;2024-02-26T07:13:58;10.77;;;4.10;;
25079;SDS011;13071;48.868;9.996;2024-02-26T07:16:26;10.55;;;3.95;;
25079;SDS011;13071;48.868;9.996;2024-02-26T07:18:52;8.10;;;3.85;;
25079;SDS011;13071;48.868;9.996;2024-02-26T07:21:19;11.30;;;5.00;;
25079;SDS011;13071;48.868;9.996;2024-02-26T07:23:45;7.18;;;3.35;;
25079;SDS011;13071;48.868;9.996;2024-02-26T07:26:11;9.65;;;3.60;;
25079;SDS011;13071;48.868;9.996;2024-02-26T07:28:38;12.10;;;4.78;;
25079;SDS011;13071;48.868;9.996;2024-02-26T07:31:05;9.77;;;4.32;;
25079;SDS011;13071;48.868;9.996;2024-02-26T07:33:32;6.85;;;3.42;;
25079;SDS011;13071;48.868;9.996;2024-02-26T07:35:58;9.15;;;4.05;;
25079;SDS011;13071;48.868;9.996;2024-02-26T07:38:25;8.75;;;3.72;;
25079;SDS011;13071;48.868;9.996;2024-02-26T07:40:51;12.13;;;4.38;;
25079;SDS011;13071;48.868;9.996;2024-02-26T07:43:17;10.32;;;4.47;;
25079;SDS011;13071;48.868;9.996;2024-02-26T07:45:44;8.60;;;4.25;;
25079;SDS011;13071;48.868;9.996;2024-02-26T07:48:11;10.63;;;4.32;;
25079;SDS011;13071;48.868;9.996;2024-02-26T07:50:39;8.55;;;4.10;;
25079;SDS011;13071;48.868;9.996;2024-02-26T07:53:05;9.98;;;4.18;;
25079;SDS011;13071;48.868;9.996;2024-02-26T07:55:31;10.20;;;4.53;;
25079;SDS011;13071;48.868;9.996;2024-02-26T07:57:58;10.93;;;4.07;;
25079;SDS011;13071;48.868;9.996;2024-02-26T08:00:24;10.93;;;4.80;;
25079;SDS011;13071;48.868;9.996;2024-02-26T08:02:50;10.65;;;4.05;;
25079;SDS011;13071;48.868;9.996;2024-02-26T08:05:18;9.55;;;4.70;;
25079;SDS011;13071;48.868;9.996;2024-02-26T08:07:45;9.23;;;4.55;;
25079;SDS011;13071;48.868;9.996;2024-02-26T08:10:11;7.88;;;4.28;;
25079;SDS011;13071;48.868;9.996;2024-02-26T08:12:37;13.02;;;4.60;;
25079;SDS011;13071;48.868;9.996;2024-02-26T08:15:04;10.02;;;4.95;;
25079;SDS011;13071;48.868;9.996;2024-02-26T08:17:31;12.80;;;5.15;;
25079;SDS011;13071;48.868;9.996;2024-02-26T08:19:58;9.75;;;4.70;;
25079;SDS011;13071;48.868;9.996;2024-02-26T08:22:26;10.20;;;4.75;;
25079;SDS011;13071;48.868;9.996;2024-02-26T08:24:53;8.77;;;4.30;;
25079;SDS011;13071;48.868;9.996;2024-02-26T08:27:19;8.75;;;4.55;;
25079;SDS011;13071;48.868;9.996;2024-02-26T08:29:45;8.70;;;4.50;;
25079;SDS011;13071;48.868;9.996;2024-02-26T08:32:12;9.18;;;4.85;;
25079;SDS011;13071;48.868;9.996;2024-02-26T08:34:38;11.15;;;4.78;;
25079;SDS011;13071;48.868;9.996;2024-02-26T08:37:05;9.38;;;4.85;;
25079;SDS011;13071;48.868;9.996;2024-02-26T08:39:33;10.13;;;4.68;;
25079;SDS011;13071;48.868;9.996;2024-02-26T08:41:59;9.88;;;4.78;;
25079;SDS011;13071;48.868;9.996;2024-02-26T08:44:26;10.45;;;4.85;;
25079;SDS011;13071;48.868;9.996;2024-02-26T08:46:52;12.45;;;4.95;;
25079;SDS011;13071;48.868;9.996;2024-02-26T08:49:18;12.13;;;4.85;;
25079;SDS011;13071;48.868;9.996;2024-02-26T08:51:45;9.70;;;4.88;;
25079;SDS011;13071;48.868;9.996;2024-02-26T08:54:11;10.20;;;4.70;;
25079;SDS011;13071;48.868;9.996;2024-02-26T08:56:39;9.50;;;5.10;;
25079;SDS011;13071;48.868;9.996;2024-02-26T08:59:05;10.48;;;4.60;;
25079;SDS011;13071;48.868;9.996;2024-02-26T09:01:31;11.50;;;5.43;;
25079;SDS011;13071;48.868;9.996;2024-02-26T09:03:58;11.77;;;5.22;;
25079;SDS011;13071;48.868;9.996;2024-02-26T09:06:25;9.50;;;4.75;;
25079;SDS011;13071;48.868;9.996;2024-02-26T09:08:51;10.45;;;4.85;;
25079;SDS011;13071;48.868;9.996;2024-02-26T09:11:17;10.68;;;5.10;;
25079;SDS011;13071;48.868;9.996;2024-02-26T09:13:45;10.38;;;4.97;;
25079;SDS011;13071;48.868;9.996;2024-02-26T09:16:11;9.82;;;4.90;;
25079;SDS011;13071;48.868;9.996;2024-02-26T09:18:38;10.07;;;5.05;;
25079;SDS011;13071;48.868;9.996;2024-02-26T09:21:05;11.95;;;5.60;;
25079;SDS011;13071;48.868;9.996;2024-02-26T09:23:31;9.38;;;4.82;;
25079;SDS011;13071;48.868;9.996;2024-02-26T09:25:58;11.82;;;5.05;;
25079;SDS011;13071;48.868;9.996;2024-02-26T09:28:24;12.48;;;5.03;;
25079;SDS011;13071;48.868;9.996;2024-02-26T09:30:52;14.20;;;5.80;;
25079;SDS011;13071;48.868;9.996;2024-02-26T09:33:19;10.07;;;5.03;;
25079;SDS011;13071;48.868;9.996;2024-02-26T09:35:46;11.40;;;5.13;;
25079;SDS011;13071;48.868;9.996;2024-02-26T09:38:12;10.27;;;5.35;;
25079;SDS011;13071;48.868;9.996;2024-02-26T09:40:39;10.20;;;5.47;;
25079;SDS011;13071;48.868;9.996;2024-02-26T09:43:05;9.95;;;4.97;;
25079;SDS011;13071;48.868;9.996;2024-02-26T09:45:33;11.25;;;5.70;;
25079;SDS011;13071;48.868;9.996;2024-02-26T09:48:02;10.32;;;5.32;;
25079;SDS011;13071;48.868;9.996;2024-02-26T09:50:29;10.73;;;5.15;;
25079;SDS011;13071;48.868;9.996;2024-02-26T09:52:56;11.55;;;5.45;;
25079;SDS011;13071;48.868;9.996;2024-02-26T09:55:24;10.00;;;4.95;;
25079;SDS011;13071;48.868;9.996;2024-02-26T09:57:51;13.50;;;5.57;;
25079;SDS011;13071;48.868;9.996;2024-02-26T10:00:18;12.27;;;5.68;;
25079;SDS011;13071;48.868;9.996;2024-02-26T10:02:45;9.48;;;5.00;;
25079;SDS011;13071;48.868;9.996;2024-02-26T10:05:13;9.70;;;4.63;;
25079;SDS011;13071;48.868;9.996;2024-02-26T10:07:40;10.88;;;5.63;;
25079;SDS011;13071;48.868;9.996;2024-02-26T10:10:08;9.48;;;4.70;;
25079;SDS011;13071;48.868;9.996;2024-02-26T10:12:35;11.18;;;5.57;;
25079;SDS011;13071;48.868;9.996;2024-02-26T10:15:01;14.55;;;5.25;;
25079;SDS011;13071;48.868;9.996;2024-02-26T10:17:27;13.15;;;5.70;;
25079;SDS011;13071;48.868;9.996;2024-02-26T10:19:54;9.40;;;4.97;;
25079;SDS011;13071;48.868;9.996;2024-02-26T10:22:23;14.38;;;5.60;;
25079;SDS011;13071;48.868;9.996;2024-02-26T10:24:49;10.18;;;5.30;;
25079;SDS011;13071;48.868;9.996;2024-02-26T10:27:15;8.30;;;4.38;;
25079;SDS011;13071;48.868;9.996;2024-02-26T10:29:42;10.02;;;5.05;;
25079;SDS011;13071;48.868;9.996;2024-02-26T10:32:09;8.23;;;4.53;;
25079;SDS011;13071;48.868;9.996;2024-02-26T10:34:38;9.00;;;4.45;;
25079;SDS011;13071;48.868;9.996;2024-02-26T10:37:06;10.63;;;5.10;;
25079;SDS011;13071;48.868;9.996;2024-02-26T10:39:35;9.07;;;4.03;;
25079;SDS011;13071;48.868;9.996;2024-02-26T10:42:02;8.48;;;4.10;;
25079;SDS011;13071;48.868;9.996;2024-02-26T10:44:34;7.40;;;4.10;;
25079;SDS011;13071;48.868;9.996;2024-02-26T10:47:00;8.00;;;4.22;;
25079;SDS011;13071;48.868;9.996;2024-02-26T10:49:27;10.35;;;3.75;;
25079;SDS011;13071;48.868;9.996;2024-02-26T10:51:55;12.80;;;4.45;;
25079;SDS011;13071;48.868;9.996;2024-02-26T10:54:22;9.85;;;5.13;;
25079;SDS011;13071;48.868;9.996;2024-02-26T10:56:51;8.25;;;4.13;;
25079;SDS011;13071;48.868;9.996;2024-02-26T10:59:18;9.85;;;4.30;;
25079;SDS011;13071;48.868;9.996;2024-02-26T11:01:45;6.80;;;3.75;;
25079;SDS011;13071;48.868;9.996;2024-02-26T11:04:14;6.47;;;3.60;;
25079;SDS011;13071;48.868;9.996;2024-02-26T11:06:40;5.90;;;3.60;;
25079;SDS011;13071;48.868;9.996;2024-02-26T11:09:07;7.88;;;3.50;;
25079;SDS011;13071;48.868;9.996;2024-02-26T11:11:37;6.55;;;3.35;;
25079;SDS011;13071;48.868;9.996;2024-02-26T11:14:06;4.80;;;2.83;;
25079;SDS011;13071;48.868;9.996;2024-02-26T11:16:34;10.95;;;3.83;;
25079;SDS011;13071;48.868;9.996;2024-02-26T11:19:01;10.48;;;4.15;;
25079;SDS011;13071;48.868;9.996;2024-02-26T11:21:28;10.15;;;3.88;;
25079;SDS011;13071;48.868;9.996;2024-02-26T11:24:03;6.00;;;3.47;;
25079;SDS011;13071;48.868;9.996;2024-02-26T11:26:30;5.50;;;2.92;;
25079;SDS011;13071;48.868;9.996;2024-02-26T11:28:56;5.80;;;3.35;;
25079;SDS011;13071;48.868;9.996;2024-02-26T11:31:25;8.25;;;3.90;;
25079;SDS011;13071;48.868;9.996;2024-02-26T11:33:52;8.32;;;3.42;;
25079;SDS011;13071;48.868;9.996;2024-02-26T11:36:19;6.97;;;3.58;;
25079;SDS011;13071;48.868;9.996;2024-02-26T11:38:46;4.80;;;3.10;;
25079;SDS011;13071;48.868;9.996;2024-02-26T11:41:16;5.97;;;3.33;;
25079;SDS011;13071;48.868;9.996;2024-02-26T11:43:49;5.88;;;3.58;;
25079;SDS011;13071;48.868;9.996;2024-02-26T11:46:25;11.00;;;3.65;;
25079;SDS011;13071;48.868;9.996;2024-02-26T11:48:53;6.20;;;3.65;;
25079;SDS011;13071;48.868;9.996;2024-02-26T11:51:24;6.35;;;3.50;;
25079;SDS011;13071;48.868;9.996;2024-02-26T11:53:50;7.30;;;3.53;;
25079;SDS011;13071;48.868;9.996;2024-02-26T11:56:23;5.80;;;3.00;;
25079;SDS011;13071;48.868;9.996;2024-02-26T11:58:58;8.48;;;4.15;;
25079;SDS011;13071;48.868;9.996;2024-02-26T12:01:42;7.45;;;3.80;;
25079;SDS011;13071;48.868;9.996;2024-02-26T12:04:11;6.25;;;3.13;;
25079;SDS011;13071;48.868;9.996;2024-02-26T12:06:40;8.75;;;4.18;;
25079;SDS011;13071;48.868;9.996;2024-02-26T12:09:07;8.55;;;4.05;;
25079;SDS011;13071;48.868;9.996;2024-02-26T12:11:33;7.68;;;3.88;;
25079;SDS011;13071;48.868;9.996;2024-02-26T12:14:03;7.20;;;3.90;;
25079;SDS011;13071;48.868;9.996;2024-02-26T12:16:35;6.72;;;3.60;;
25079;SDS011;13071;48.868;9.996;2024-02-26T12:19:05;6.68;;;4.00;;
25079;SDS011;13071;48.868;9.996;2024-02-26T12:21:33;7.47;;;3.75;;
25079;SDS011;13071;48.868;9.996;2024-02-26T12:24:06;8.50;;;3.83;;
25079;SDS011;13071;48.868;9.996;2024-02-26T12:26:33;6.40;;;3.67;;
25079;SDS011;13071;48.868;9.996;2024-02-26T12:28:59;7.07;;;3.70;;
25079;SDS011;13071;48.868;9.996;2024-02-26T12:31:26;6.38;;;3.58;;
25079;SDS011;13071;48.868;9.996;2024-02-26T12:33:53;8.40;;;3.85;;
25079;SDS011;13071;48.868;9.996;2024-02-26T12:36:21;4.57;;;3.15;;
25079;SDS011;13071;48.868;9.996;2024-02-26T12:38:48;7.35;;;3.58;;
25079;SDS011;13071;48.868;9.996;2024-02-26T12:41:14;8.25;;;3.70;;
25079;SDS011;13071;48.868;9.996;2024-02-26T12:43:41;5.70;;;3.30;;
25079;SDS011;13071;48.868;9.996;2024-02-26T12:46:07;9.75;;;3.67;;
25079;SDS011;13071;48.868;9.996;2024-02-26T12:48:33;7.57;;;3.90;;
25079;SDS011;13071;48.868;9.996;2024-02-26T12:51:00;7.07;;;3.53;;
25079;SDS011;13071;48.868;9.996;2024-02-26T12:53:28;9.10;;;4.57;;
25079;SDS011;13071;48.868;9.996;2024-02-26T12:55:54;11.15;;;4.70;;
25079;SDS011;13071;48.868;9.996;2024-02-26T12:58:21;9.07;;;4.63;;
25079;SDS011;13071;48.868;9.996;2024-02-26T13:00:49;10.73;;;5.00;;
25079;SDS011;13071;48.868;9.996;2024-02-26T13:03:16;15.25;;;5.93;;
25079;SDS011;13071;48.868;9.996;2024-02-26T13:05:43;14.27;;;6.13;;
25079;SDS011;13071;48.868;9.996;2024-02-26T13:08:10;14.18;;;6.18;;
25079;SDS011;13071;48.868;9.996;2024-02-26T13:10:37;14.32;;;6.50;;
25079;SDS011;13071;48.868;9.996;2024-02-26T13:13:04;13.93;;;6.15;;
25079;SDS011;13071;48.868;9.996;2024-02-26T13:15:30;16.95;;;6.30;;
25079;SDS011;13071;48.868;9.996;2024-02-26T13:17:57;13.15;;;5.95;;
25079;SDS011;13071;48.868;9.996;2024-02-26T13:20:28;14.65;;;6.18;;
25079;SDS011;13071;48.868;9.996;2024-02-26T13:22:59;12.10;;;5.95;;
25079;SDS011;13071;48.868;9.996;2024-02-26T13:25:26;12.35;;;5.43;;
25079;SDS011;13071;48.868;9.996;2024-02-26T13:27:53;14.98;;;4.90;;
25079;SDS011;13071;48.868;9.996;2024-02-26T13:30:30;14.15;;;4.95;;
25079;SDS011;13071;48.868;9.996;2024-02-26T13:32:56;9.65;;;4.72;;
25079;SDS011;13071;48.868;9.996;2024-02-26T13:35:33;12.68;;;6.30;;
25079;SDS011;13071;48.868;9.996;2024-02-26T13:38:00;10.07;;;4.88;;
25079;SDS011;13071;48.868;9.996;2024-02-26T13:40:26;10.63;;;4.72;;
25079;SDS011;13071;48.868;9.996;2024-02-26T13:42:55;13.18;;;4.88;;
25079;SDS011;13071;48.868;9.996;2024-02-26T13:45:21;11.73;;;4.95;;
25079;SDS011;13071;48.868;9.996;2024-02-26T13:47:48;8.43;;;3.95;;
25079;SDS011;13071;48.868;9.996;2024-02-26T13:50:14;10.32;;;4.75;;
25079;SDS011;13071;48.868;9.996;2024-02-26T13:52:41;9.88;;;4.15;;
25079;SDS011;13071;48.868;9.996;2024-02-26T13:55:08;10.63;;;3.65;;
25079;SDS011;13071;48.868;9.996;2024-02-26T13:57:34;7.15;;;3.75;;
25079;SDS011;13071;48.868;9.996;2024-02-26T14:00:02;5.93;;;2.95;;
25079;SDS011;13071;48.868;9.996;2024-02-26T14:02:29;3.42;;;2.33;;
25079;SDS011;13071;48.868;9.996;2024-02-26T14:04:55;4.05;;;2.50;;
25079;SDS011;13071;48.868;9.996;2024-02-26T14:07:21;3.17;;;2.00;;
25079;SDS011;13071;48.868;9.996;2024-02-26T14:09:48;4.22;;;2.30;;
25079;SDS011;13071;48.868;9.996;2024-02-26T14:12:15;2.67;;;2.13;;
25079;SDS011;13071;48.868;9.996;2024-02-26T14:14:41;3.40;;;2.00;;
25079;SDS011;13071;48.868;9.996;2024-02-26T14:17:09;3.42;;;2.22;;
25079;SDS011;13071;48.868;9.996;2024-02-26T14:19:36;3.92;;;2.80;;
25079;SDS011;13071;48.868;9.996;2024-02-26T14:22:04;2.92;;;2.17;;
25079;SDS011;13071;48.868;9.996;2024-02-26T14:24:31;3.60;;;2.10;;
25079;SDS011;13071;48.868;9.996;2024-02-26T14:26:58;3.40;;;2.17;;
25079;SDS011;13071;48.868;9.996;2024-02-26T14:29:24;5.15;;;2.20;;
25079;SDS011;13071;48.868;9.996;2024-02-26T14:31:50;2.63;;;1.95;;
25079;SDS011;13071;48.868;9.996;2024-02-26T14:34:18;3.17;;;2.08;;
25079;SDS011;13071;48.868;9.996;2024-02-26T14:36:44;3.05;;;1.98;;
25079;SDS011;13071;48.868;9.996;2024-02-26T14:39:11;3.78;;;2.42;;
25079;SDS011;13071;48.868;9.996;2024-02-26T14:41:38;2.65;;;2.00;;
25079;SDS011;13071;48.868;9.996;2024-02-26T14:44:05;4.40;;;2.38;;